sensor_id;sensor_type;location;lat;lon;timestamp;temperature;humidity
17529;DHT22;8882;53.192;8.184;2023-06-10T07:02:06;18.60;1.00
17529;DHT22;8882;53.192;8.184;2023-06-10T07:04:31;18.70;1.00
17529;DHT22;8882;53.192;8.184;2023-06-10T07:06:56;18.70;1.00
17529;DHT22;8882;53.192;8.184;2023-06-10T07:09:22;18.80;1.00
17529;DHT22;8882;53.192;8.184;2023-06-10T07:11:48;18.90;1.00
17529;DHT22;8882;53.192;8.184;2023-06-10T07:14:13;18.90;1.00
17529;DHT22;8882;53.192;8.184;2023-06-10T07:16:38;18.80;1.00
17529;DHT22;8882;53.192;8.184;2023-06-10T07:19:04;18.80;1.00
17529;DHT22;8882;53.192;8.184;2023-06-10T07:21:30;18.90;1.00
17529;DHT22;8882;53.192;8.184;2023-06-10T07:23:55;19.00;1.00
17529;DHT22;8882;53.192;8.184;2023-06-10T07:26:22;19.20;1.00
17529;DHT22;8882;53.192;8.184;2023-06-10T07:28:48;19.20;1.00
17529;DHT22;8882;53.192;8.184;2023-06-10T07:31:13;19.30;1.00
17529;DHT22;8882;53.192;8.184;2023-06-10T07:33:39;19.10;1.00
17529;DHT22;8882;53.192;8.184;2023-06-10T07:36:08;19.00;1.00
17529;DHT22;8882;53.192;8.184;2023-06-10T07:38:33;19.10;1.00
17529;DHT22;8882;53.192;8.184;2023-06-10T07:40:59;19.20;1.00
17529;DHT22;8882;53.192;8.184;2023-06-10T07:43:25;19.40;1.00
17529;DHT22;8882;53.192;8.184;2023-06-10T07:45:50;19.60;1.00
17529;DHT22;8882;53.192;8.184;2023-06-10T07:48:16;19.70;1.00
17529;DHT22;8882;53.192;8.184;2023-06-10T07:50:41;19.50;1.00
17529;DHT22;8882;53.192;8.184;2023-06-10T07:53:07;19.20;1.00
17529;DHT22;8882;53.192;8.184;2023-06-10T07:55:32;19.40;1.00
17529;DHT22;8882;53.192;8.184;2023-06-10T07:57:58;19.50;1.00
17529;DHT22;8882;53.192;8.184;2023-06-10T08:00:23;19.60;1.00
17529;DHT22;8882;53.192;8.184;2023-06-10T08:02:49;19.70;1.00
17529;DHT22;8882;53.192;8.184;2023-06-10T08:05:16;19.90;1.00
17529;DHT22;8882;53.192;8.184;2023-06-10T08:07:42;19.90;1.00
17529;DHT22;8882;53.192;8.184;2023-06-10T08:10:08;19.90;1.00
17529;DHT22;8882;53.192;8.184;2023-06-10T08:12:34;20.00;1.00
17529;DHT22;8882;53.192;8.184;2023-06-10T08:15:00;19.90;1.00
17529;DHT22;8882;53.192;8.184;2023-06-10T08:17:26;20.10;1.00
17529;DHT22;8882;53.192;8.184;2023-06-10T08:19:51;20.20;1.00
17529;DHT22;8882;53.192;8.184;2023-06-10T08:22:17;20.20;1.00
17529;DHT22;8882;53.192;8.184;2023-06-10T08:24:42;20.30;1.00
17529;DHT22;8882;53.192;8.184;2023-06-10T08:27:08;20.60;1.00
17529;DHT22;8882;53.192;8.184;2023-06-10T08:29:34;20.70;1.00
17529;DHT22;8882;53.192;8.184;2023-06-10T08:32:00;20.80;1.00
17529;DHT22;8882;53.192;8.184;2023-06-10T08:34:25;20.80;1.00
17529;DHT22;8882;53.192;8.184;2023-06-10T08:36:51;20.90;1.00
17529;DHT22;8882;53.192;8.184;2023-06-10T08:39:19;20.90;1.00
17529;DHT22;8882;53.192;8.184;2023-06-10T08:44:42;21.10;1.00
17529;DHT22;8882;53.192;8.184;2023-06-10T08:47:13;21.20;1.00
17529;DHT22;8882;53.192;8.184;2023-06-10T08:49:45;21.40;1.00
17529;DHT22;8882;53.192;8.184;2023-06-10T08:52:16;21.40;1.00
17529;DHT22;8882;53.192;8.184;2023-06-10T08:54:47;21.30;1.00
17529;DHT22;8882;53.192;8.184;2023-06-10T08:57:14;21.40;1.00
17529;DHT22;8882;53.192;8.184;2023-06-10T08:59:41;21.60;1.00
17529;DHT22;8882;53.192;8.184;2023-06-10T09:02:07;21.80;1.00
17529;DHT22;8882;53.192;8.184;2023-06-10T09:04:34;22.00;1.00
17529;DHT22;8882;53.192;8.184;2023-06-10T09:07:02;22.10;1.00
17529;DHT22;8882;53.192;8.184;2023-06-10T09:09:28;22.10;1.00
17529;DHT22;8882;53.192;8.184;2023-06-10T09:11:56;22.00;1.00
17529;DHT22;8882;53.192;8.184;2023-06-10T09:14:21;22.10;1.00
17529;DHT22;8882;53.192;8.184;2023-06-10T09:16:46;22.20;1.00
17529;DHT22;8882;53.192;8.184;2023-06-10T09:19:15;22.10;1.00
17529;DHT22;8882;53.192;8.184;2023-06-10T09:21:41;22.20;1.00
17529;DHT22;8882;53.192;8.184;2023-06-10T09:24:07;22.40;1.00
17529;DHT22;8882;53.192;8.184;2023-06-10T09:26:32;22.50;1.00
17529;DHT22;8882;53.192;8.184;2023-06-10T09:29:03;22.50;1.00
17529;DHT22;8882;53.192;8.184;2023-06-10T09:31:30;22.50;1.00
17529;DHT22;8882;53.192;8.184;2023-06-10T09:34:10;22.70;1.00
17529;DHT22;8882;53.192;8.184;2023-06-10T09:36:37;22.80;1.00
17529;DHT22;8882;53.192;8.184;2023-06-10T09:39:03;23.00;1.00
17529;DHT22;8882;53.192;8.184;2023-06-10T09:41:35;22.90;1.00
17529;DHT22;8882;53.192;8.184;2023-06-10T09:44:01;23.00;1.00
17529;DHT22;8882;53.192;8.184;2023-06-10T09:46:31;23.10;1.00
17529;DHT22;8882;53.192;8.184;2023-06-10T09:49:00;23.10;1.00
17529;DHT22;8882;53.192;8.184;2023-06-10T09:51:26;23.40;1.00
17529;DHT22;8882;53.192;8.184;2023-06-10T09:53:51;23.60;1.00
17529;DHT22;8882;53.192;8.184;2023-06-10T09:56:18;23.50;1.00
17529;DHT22;8882;53.192;8.184;2023-06-10T09:58:44;23.60;1.00
17529;DHT22;8882;53.192;8.184;2023-06-10T10:01:12;23.70;1.00
17529;DHT22;8882;53.192;8.184;2023-06-10T10:03:50;23.80;99.90
17529;DHT22;8882;53.192;8.184;2023-06-10T10:06:17;23.60;99.90
17529;DHT22;8882;53.192;8.184;2023-06-10T10:08:45;23.50;1.00
17529;DHT22;8882;53.192;8.184;2023-06-10T10:11:10;23.80;1.00
17529;DHT22;8882;53.192;8.184;2023-06-10T10:13:37;23.90;1.00
17529;DHT22;8882;53.192;8.184;2023-06-10T10:16:09;23.80;1.00
17529;DHT22;8882;53.192;8.184;2023-06-10T10:18:39;24.10;1.00
17529;DHT22;8882;53.192;8.184;2023-06-10T10:21:11;24.00;1.00
17529;DHT22;8882;53.192;8.184;2023-06-10T10:26:24;24.30;99.90
17529;DHT22;8882;53.192;8.184;2023-06-10T10:29:10;24.30;99.90
17529;DHT22;8882;53.192;8.184;2023-06-10T10:31:36;24.40;1.00
17529;DHT22;8882;53.192;8.184;2023-06-10T10:34:07;24.40;99.90
17529;DHT22;8882;53.192;8.184;2023-06-10T10:36:32;24.60;99.90
17529;DHT22;8882;53.192;8.184;2023-06-10T10:38:58;24.70;99.90
17529;DHT22;8882;53.192;8.184;2023-06-10T10:41:27;24.60;99.90
17529;DHT22;8882;53.192;8.184;2023-06-10T10:43:53;24.80;99.90
17529;DHT22;8882;53.192;8.184;2023-06-10T10:46:19;24.70;99.90
17529;DHT22;8882;53.192;8.184;2023-06-10T10:48:46;24.70;99.90
17529;DHT22;8882;53.192;8.184;2023-06-10T10:51:17;24.80;99.90
17529;DHT22;8882;53.192;8.184;2023-06-10T10:53:42;25.00;99.90
17529;DHT22;8882;53.192;8.184;2023-06-10T10:56:14;24.80;99.90
17529;DHT22;8882;53.192;8.184;2023-06-10T10:58:40;24.80;99.90
17529;DHT22;8882;53.192;8.184;2023-06-10T11:01:13;24.70;99.90
17529;DHT22;8882;53.192;8.184;2023-06-10T11:03:43;25.00;99.90
17529;DHT22;8882;53.192;8.184;2023-06-10T11:06:14;25.20;99.90
17529;DHT22;8882;53.192;8.184;2023-06-10T12:41:57;26.90;99.90
17529;DHT22;8882;53.192;8.184;2023-06-10T12:44:33;26.90;99.90
17529;DHT22;8882;53.192;8.184;2023-06-10T12:47:00;26.90;99.90
17529;DHT22;8882;53.192;8.184;2023-06-10T12:49:26;26.90;99.90
17529;DHT22;8882;53.192;8.184;2023-06-10T12:51:52;27.00;99.90
17529;DHT22;8882;53.192;8.184;2023-06-10T12:54:17;27.10;99.90
17529;DHT22;8882;53.192;8.184;2023-06-10T12:56:43;27.00;99.90
17529;DHT22;8882;53.192;8.184;2023-06-10T12:59:09;27.00;99.90
17529;DHT22;8882;53.192;8.184;2023-06-10T13:01:34;26.70;99.90
17529;DHT22;8882;53.192;8.184;2023-06-10T13:04:00;26.60;99.90
17529;DHT22;8882;53.192;8.184;2023-06-10T13:06:25;26.70;99.90
17529;DHT22;8882;53.192;8.184;2023-06-10T13:08:51;26.70;99.90
17529;DHT22;8882;53.192;8.184;2023-06-10T13:11:17;26.60;99.90
17529;DHT22;8882;53.192;8.184;2023-06-10T13:13:42;26.60;99.90
17529;DHT22;8882;53.192;8.184;2023-06-10T13:16:08;26.60;99.90
17529;DHT22;8882;53.192;8.184;2023-06-10T13:18:34;26.80;99.90
17529;DHT22;8882;53.192;8.184;2023-06-10T13:21:03;26.90;99.90
17529;DHT22;8882;53.192;8.184;2023-06-10T13:23:29;27.00;99.90
17529;DHT22;8882;53.192;8.184;2023-06-10T13:25:54;26.80;99.90
17529;DHT22;8882;53.192;8.184;2023-06-10T13:28:21;26.90;99.90
17529;DHT22;8882;53.192;8.184;2023-06-10T13:30:46;26.80;99.90
17529;DHT22;8882;53.192;8.184;2023-06-10T13:33:12;26.80;99.90
17529;DHT22;8882;53.192;8.184;2023-06-10T13:35:37;26.70;99.90
17529;DHT22;8882;53.192;8.184;2023-06-10T13:38:03;26.70;99.90
17529;DHT22;8882;53.192;8.184;2023-06-10T13:40:28;26.70;99.90
17529;DHT22;8882;53.192;8.184;2023-06-10T13:42:54;26.70;99.90
17529;DHT22;8882;53.192;8.184;2023-06-10T13:45:20;26.70;99.90
17529;DHT22;8882;53.192;8.184;2023-06-10T13:47:45;26.80;99.90
17529;DHT22;8882;53.192;8.184;2023-06-10T13:50:11;26.70;99.90
17529;DHT22;8882;53.192;8.184;2023-06-10T13:52:38;26.70;99.90
17529;DHT22;8882;53.192;8.184;2023-06-10T13:55:04;26.80;99.90
17529;DHT22;8882;53.192;8.184;2023-06-10T13:57:30;26.80;99.90
17529;DHT22;8882;53.192;8.184;2023-06-10T13:59:55;26.80;99.90
17529;DHT22;8882;53.192;8.184;2023-06-10T14:02:21;27.00;99.90
17529;DHT22;8882;53.192;8.184;2023-06-10T14:04:47;26.90;99.90
17529;DHT22;8882;53.192;8.184;2023-06-10T14:07:13;26.80;99.90
17529;DHT22;8882;53.192;8.184;2023-06-10T14:09:38;26.80;99.90
17529;DHT22;8882;53.192;8.184;2023-06-10T14:12:04;26.80;99.90
17529;DHT22;8882;53.192;8.184;2023-06-10T14:14:30;26.70;99.90
17529;DHT22;8882;53.192;8.184;2023-06-10T14:16:58;26.80;99.90
17529;DHT22;8882;53.192;8.184;2023-06-10T14:19:24;26.90;99.90
17529;DHT22;8882;53.192;8.184;2023-06-10T14:21:49;26.80;99.90
17529;DHT22;8882;53.192;8.184;2023-06-10T14:24:15;26.70;99.90
17529;DHT22;8882;53.192;8.184;2023-06-10T14:26:40;26.60;99.90
17529;DHT22;8882;53.192;8.184;2023-06-10T14:29:06;26.60;99.90
17529;DHT22;8882;53.192;8.184;2023-06-10T14:31:32;26.70;99.90
17529;DHT22;8882;53.192;8.184;2023-06-10T14:33:58;26.70;99.90
17529;DHT22;8882;53.192;8.184;2023-06-10T14:36:23;26.70;99.90
17529;DHT22;8882;53.192;8.184;2023-06-10T14:38:49;26.80;99.90
17529;DHT22;8882;53.192;8.184;2023-06-10T14:41:15;26.80;99.90
17529;DHT22;8882;53.192;8.184;2023-06-10T14:43:40;26.80;99.90
17529;DHT22;8882;53.192;8.184;2023-06-10T14:46:06;26.90;99.90
17529;DHT22;8882;53.192;8.184;2023-06-10T14:48:32;26.80;99.90
17529;DHT22;8882;53.192;8.184;2023-06-10T14:50:57;26.80;99.90
17529;DHT22;8882;53.192;8.184;2023-06-10T14:53:23;26.80;99.90
17529;DHT22;8882;53.192;8.184;2023-06-10T14:55:48;26.80;99.90
17529;DHT22;8882;53.192;8.184;2023-06-10T14:58:14;26.70;99.90
17529;DHT22;8882;53.192;8.184;2023-06-10T15:00:39;26.80;99.90
17529;DHT22;8882;53.192;8.184;2023-06-10T15:03:05;26.80;99.90
17529;DHT22;8882;53.192;8.184;2023-06-10T15:05:30;26.80;99.90
17529;DHT22;8882;53.192;8.184;2023-06-10T15:07:56;26.90;99.90
17529;DHT22;8882;53.192;8.184;2023-06-10T15:10:22;26.80;99.90
17529;DHT22;8882;53.192;8.184;2023-06-10T15:12:48;26.70;99.90
17529;DHT22;8882;53.192;8.184;2023-06-10T15:15:20;26.70;99.90
17529;DHT22;8882;53.192;8.184;2023-06-10T15:17:46;26.70;99.90
17529;DHT22;8882;53.192;8.184;2023-06-10T15:20:11;26.70;99.90
17529;DHT22;8882;53.192;8.184;2023-06-10T15:22:37;26.70;99.90
17529;DHT22;8882;53.192;8.184;2023-06-10T15:25:02;26.70;99.90
17529;DHT22;8882;53.192;8.184;2023-06-10T15:27:28;26.70;99.90
17529;DHT22;8882;53.192;8.184;2023-06-10T15:29:53;26.70;99.90
17529;DHT22;8882;53.192;8.184;2023-06-10T15:32:19;26.70;99.90
17529;DHT22;8882;53.192;8.184;2023-06-10T15:34:44;26.80;99.90
17529;DHT22;8882;53.192;8.184;2023-06-10T15:37:13;26.80;99.90
17529;DHT22;8882;53.192;8.184;2023-06-10T15:39:39;26.80;99.90
17529;DHT22;8882;53.192;8.184;2023-06-10T15:42:04;26.90;99.90
17529;DHT22;8882;53.192;8.184;2023-06-10T15:44:30;26.80;99.90
17529;DHT22;8882;53.192;8.184;2023-06-10T15:46:56;26.80;99.90
17529;DHT22;8882;53.192;8.184;2023-06-10T15:49:21;26.80;99.90
17529;DHT22;8882;53.192;8.184;2023-06-10T15:51:47;26.90;99.90
17529;DHT22;8882;53.192;8.184;2023-06-10T15:54:12;26.90;99.90
17529;DHT22;8882;53.192;8.184;2023-06-10T15:56:38;26.80;99.90
17529;DHT22;8882;53.192;8.184;2023-06-10T15:59:05;26.70;99.90
17529;DHT22;8882;53.192;8.184;2023-06-10T16:01:30;26.70;99.90
17529;DHT22;8882;53.192;8.184;2023-06-10T16:03:56;26.70;99.90
17529;DHT22;8882;53.192;8.184;2023-06-10T16:06:21;26.70;99.90
17529;DHT22;8882;53.192;8.184;2023-06-10T16:08:47;26.80;99.90
17529;DHT22;8882;53.192;8.184;2023-06-10T16:11:12;26.80;99.90
17529;DHT22;8882;53.192;8.184;2023-06-10T16:13:38;26.80;99.90
17529;DHT22;8882;53.192;8.184;2023-06-10T16:16:06;26.80;99.90
17529;DHT22;8882;53.192;8.184;2023-06-10T16:18:32;26.80;99.90
17529;DHT22;8882;53.192;8.184;2023-06-10T16:20:57;26.80;99.90
17529;DHT22;8882;53.192;8.184;2023-06-10T16:23:23;26.80;99.90
17529;DHT22;8882;53.192;8.184;2023-06-10T16:25:48;26.70;99.90
17529;DHT22;8882;53.192;8.184;2023-06-10T16:28:14;26.80;99.90
17529;DHT22;8882;53.192;8.184;2023-06-10T16:30:39;26.80;99.90
17529;DHT22;8882;53.192;8.184;2023-06-10T16:33:05;26.80;99.90
17529;DHT22;8882;53.192;8.184;2023-06-10T16:35:30;26.70;99.90
17529;DHT22;8882;53.192;8.184;2023-06-10T16:37:56;26.70;99.90
17529;DHT22;8882;53.192;8.184;2023-06-10T16:40:22;26.80;99.90
17529;DHT22;8882;53.192;8.184;2023-06-10T16:42:47;26.70;99.90
17529;DHT22;8882;53.192;8.184;2023-06-10T16:45:13;26.70;99.90
17529;DHT22;8882;53.192;8.184;2023-06-10T16:47:38;26.70;99.90
17529;DHT22;8882;53.192;8.184;2023-06-10T16:50:04;26.70;99.90
17529;DHT22;8882;53.192;8.184;2023-06-10T16:52:30;26.70;99.90
17529;DHT22;8882;53.192;8.184;2023-06-10T16:54:55;26.70;99.90
17529;DHT22;8882;53.192;8.184;2023-06-10T16:57:21;26.70;99.90
17529;DHT22;8882;53.192;8.184;2023-06-10T16:59:47;26.70;99.90
17529;DHT22;8882;53.192;8.184;2023-06-10T17:02:12;26.70;99.90
17529;DHT22;8882;53.192;8.184;2023-06-10T17:04:38;26.70;99.90
17529;DHT22;8882;53.192;8.184;2023-06-10T17:07:04;26.70;99.90
17529;DHT22;8882;53.192;8.184;2023-06-10T17:09:30;26.60;99.90
17529;DHT22;8882;53.192;8.184;2023-06-10T17:11:55;26.70;99.90
17529;DHT22;8882;53.192;8.184;2023-06-10T17:14:21;26.60;99.90
17529;DHT22;8882;53.192;8.184;2023-06-10T17:16:50;26.60;99.90
17529;DHT22;8882;53.192;8.184;2023-06-10T17:19:16;26.60;99.90
17529;DHT22;8882;53.192;8.184;2023-06-10T17:21:41;26.60;99.90
17529;DHT22;8882;53.192;8.184;2023-06-10T17:24:07;26.60;99.90
17529;DHT22;8882;53.192;8.184;2023-06-10T17:26:32;26.70;99.90
17529;DHT22;8882;53.192;8.184;2023-06-10T17:28:58;26.60;99.90
17529;DHT22;8882;53.192;8.184;2023-06-10T17:31:23;26.60;99.90
17529;DHT22;8882;53.192;8.184;2023-06-10T17:33:49;26.60;99.90
17529;DHT22;8882;53.192;8.184;2023-06-10T17:36:14;26.60;99.90
17529;DHT22;8882;53.192;8.184;2023-06-10T17:38:40;26.60;99.90
17529;DHT22;8882;53.192;8.184;2023-06-10T17:41:05;26.60;99.90
17529;DHT22;8882;53.192;8.184;2023-06-10T17:43:32;26.50;99.90
17529;DHT22;8882;53.192;8.184;2023-06-10T17:45:58;26.50;99.90
17529;DHT22;8882;53.192;8.184;2023-06-10T17:48:23;26.50;99.90
17529;DHT22;8882;53.192;8.184;2023-06-10T17:50:49;26.50;99.90
17529;DHT22;8882;53.192;8.184;2023-06-10T17:53:15;26.50;99.90
17529;DHT22;8882;53.192;8.184;2023-06-10T17:55:40;26.50;99.90
17529;DHT22;8882;53.192;8.184;2023-06-10T17:58:06;26.50;99.90
17529;DHT22;8882;53.192;8.184;2023-06-10T18:00:31;26.50;99.90
17529;DHT22;8882;53.192;8.184;2023-06-10T18:02:57;26.40;99.90
17529;DHT22;8882;53.192;8.184;2023-06-10T18:05:22;26.40;99.90
17529;DHT22;8882;53.192;8.184;2023-06-10T18:07:48;26.40;99.90
17529;DHT22;8882;53.192;8.184;2023-06-10T18:10:13;26.30;99.90
17529;DHT22;8882;53.192;8.184;2023-06-10T18:12:39;26.30;99.90
17529;DHT22;8882;53.192;8.184;2023-06-10T18:15:05;26.30;99.90
17529;DHT22;8882;53.192;8.184;2023-06-10T18:17:32;26.20;99.90
17529;DHT22;8882;53.192;8.184;2023-06-10T18:19:59;26.20;99.90
17529;DHT22;8882;53.192;8.184;2023-06-10T18:22:24;26.20;99.90
17529;DHT22;8882;53.192;8.184;2023-06-10T18:24:50;26.10;99.90
17529;DHT22;8882;53.192;8.184;2023-06-10T18:27:15;26.00;99.90
17529;DHT22;8882;53.192;8.184;2023-06-10T18:29:41;25.90;99.90
17529;DHT22;8882;53.192;8.184;2023-06-10T18:32:07;25.80;99.90
17529;DHT22;8882;53.192;8.184;2023-06-10T18:34:33;25.70;99.90
17529;DHT22;8882;53.192;8.184;2023-06-10T18:36:58;25.70;99.90
17529;DHT22;8882;53.192;8.184;2023-06-10T18:39:24;25.60;99.90
17529;DHT22;8882;53.192;8.184;2023-06-10T18:41:49;25.50;99.90
17529;DHT22;8882;53.192;8.184;2023-06-10T18:44:15;25.40;99.90
17529;DHT22;8882;53.192;8.184;2023-06-10T18:46:41;25.30;99.90
17529;DHT22;8882;53.192;8.184;2023-06-10T18:49:06;25.20;99.90
17529;DHT22;8882;53.192;8.184;2023-06-10T18:51:32;25.20;99.90
17529;DHT22;8882;53.192;8.184;2023-06-10T18:53:57;25.10;99.90
17529;DHT22;8882;53.192;8.184;2023-06-10T18:56:23;25.00;99.90
17529;DHT22;8882;53.192;8.184;2023-06-10T18:58:48;25.00;99.90
17529;DHT22;8882;53.192;8.184;2023-06-10T19:01:15;24.90;99.90
17529;DHT22;8882;53.192;8.184;2023-06-10T19:03:41;24.80;99.90
17529;DHT22;8882;53.192;8.184;2023-06-10T19:06:07;24.80;99.90
17529;DHT22;8882;53.192;8.184;2023-06-10T19:08:32;24.70;99.90
17529;DHT22;8882;53.192;8.184;2023-06-10T19:10:58;24.60;99.90
17529;DHT22;8882;53.192;8.184;2023-06-10T19:13:24;24.50;99.90
17529;DHT22;8882;53.192;8.184;2023-06-10T19:15:50;24.50;99.90
17529;DHT22;8882;53.192;8.184;2023-06-10T19:18:15;24.40;99.90
17529;DHT22;8882;53.192;8.184;2023-06-10T19:20:41;24.30;99.90
17529;DHT22;8882;53.192;8.184;2023-06-10T19:23:08;24.30;99.90
17529;DHT22;8882;53.192;8.184;2023-06-10T19:25:33;24.20;99.90
17529;DHT22;8882;53.192;8.184;2023-06-10T19:27:59;24.20;99.90
17529;DHT22;8882;53.192;8.184;2023-06-10T19:30:24;24.20;99.90
17529;DHT22;8882;53.192;8.184;2023-06-10T19:32:50;24.20;99.90
17529;DHT22;8882;53.192;8.184;2023-06-10T19:35:16;24.20;99.90
17529;DHT22;8882;53.192;8.184;2023-06-10T19:37:42;24.20;99.90
17529;DHT22;8882;53.192;8.184;2023-06-10T19:40:08;24.20;99.90
17529;DHT22;8882;53.192;8.184;2023-06-10T19:42:33;24.10;99.90
17529;DHT22;8882;53.192;8.184;2023-06-10T19:45:03;24.10;99.90
17529;DHT22;8882;53.192;8.184;2023-06-10T19:47:29;24.10;99.90
17529;DHT22;8882;53.192;8.184;2023-06-10T19:49:54;24.10;99.90
17529;DHT22;8882;53.192;8.184;2023-06-10T19:52:20;24.10;99.90
17529;DHT22;8882;53.192;8.184;2023-06-10T19:54:45;24.00;99.90
17529;DHT22;8882;53.192;8.184;2023-06-10T19:57:11;24.00;99.90
17529;DHT22;8882;53.192;8.184;2023-06-10T19:59:36;23.90;99.90
17529;DHT22;8882;53.192;8.184;2023-06-10T20:02:02;23.80;99.90
17529;DHT22;8882;53.192;8.184;2023-06-10T20:04:28;23.70;99.90
17529;DHT22;8882;53.192;8.184;2023-06-10T20:06:53;23.70;99.90
17529;DHT22;8882;53.192;8.184;2023-06-10T20:09:19;23.60;99.90
17529;DHT22;8882;53.192;8.184;2023-06-10T20:11:45;23.60;99.90
17529;DHT22;8882;53.192;8.184;2023-06-10T20:14:10;23.60;99.90
17529;DHT22;8882;53.192;8.184;2023-06-10T20:16:36;23.50;99.90
17529;DHT22;8882;53.192;8.184;2023-06-10T20:19:02;23.50;99.90
17529;DHT22;8882;53.192;8.184;2023-06-10T20:21:28;23.40;99.90
17529;DHT22;8882;53.192;8.184;2023-06-10T20:23:53;23.30;37.10
17529;DHT22;8882;53.192;8.184;2023-06-10T20:26:19;23.30;16.30
17529;DHT22;8882;53.192;8.184;2023-06-10T20:28:46;23.20;10.40
17529;DHT22;8882;53.192;8.184;2023-06-10T20:31:11;23.10;1.00
17529;DHT22;8882;53.192;8.184;2023-06-10T20:33:37;23.00;1.00
17529;DHT22;8882;53.192;8.184;2023-06-10T20:36:03;22.90;1.00
17529;DHT22;8882;53.192;8.184;2023-06-10T20:38:28;22.90;1.00
17529;DHT22;8882;53.192;8.184;2023-06-10T20:40:54;22.80;1.00
17529;DHT22;8882;53.192;8.184;2023-06-10T20:43:20;22.80;1.00
17529;DHT22;8882;53.192;8.184;2023-06-10T20:45:45;22.70;1.00
17529;DHT22;8882;53.192;8.184;2023-06-10T20:48:11;22.70;1.00
17529;DHT22;8882;53.192;8.184;2023-06-10T20:50:36;22.70;1.00
17529;DHT22;8882;53.192;8.184;2023-06-10T20:53:02;22.60;1.00
17529;DHT22;8882;53.192;8.184;2023-06-10T20:55:27;22.60;1.00
17529;DHT22;8882;53.192;8.184;2023-06-10T20:57:54;22.60;1.00
